Stevens Pass
Stevens Pass - WSDOT Schmidt Haus
Latest observation 09/03 17:00 PDT
| Time (PDT) | Temp °F 3950' | RH % 3950' | Pcp1 in 3950' | PcpSum in 3950' | 24Sno in 3950' | SnoHt in 3950' | Pres millibar 3950' |
|---|---|---|---|---|---|---|---|
| 09/03 17:00 | 50 | 82 | 0.00 | 0.28 | 135.5 | 7.0 | 1010 |
| 09/03 16:00 | 51 | 76 | 0.00 | 0.28 | 138.2 | 6.9 | 1010 |
| 09/03 15:00 | 51 | 82 | 0.00 | 0.28 | 142.2 | 6.8 | 1010 |
| 09/03 14:00 | 50 | 87 | 0.01 | 0.28 | 137.7 | 6.8 | 1010 |
| 09/03 13:00 | 52 | 76 | 0.00 | 0.27 | 140.3 | 6.6 | 1010 |
| 09/03 12:00 | 51 | 71 | 0.00 | 0.27 | 147.0 | 6.0 | 1010 |
| 09/03 11:00 | 50 | 80 | 0.00 | 0.27 | 139.0 | 7.0 | 1010 |
| 09/03 10:00 | 46 | 87 | 0.00 | 0.27 | 88.8 | 7.0 | 1010 |
| 09/03 09:00 | 44 | 92 | 0.00 | 0.27 | 61.9 | 7.2 | 1010 |
| 09/03 08:00 | 43 | 94 | 0.00 | 0.27 | 54.6 | 6.9 | 1010 |
| 09/03 07:00 | 41 | 94 | 0.00 | 0.27 | 64.0 | 7.4 | 1010 |
| 09/03 06:00 | 42 | 94 | 0.00 | 0.27 | 64.6 | 7.3 | 1009 |
| 09/03 05:00 | 42 | 94 | 0.00 | 0.27 | 64.8 | 7.3 | 1009 |
| 09/03 04:00 | 41 | 94 | 0.00 | 0.27 | 61.3 | 7.3 | 1009 |
| 09/03 03:00 | 40 | 93 | 0.00 | 0.27 | 66.5 | 7.5 | 1009 |
| 09/03 02:00 | 41 | 93 | 0.00 | 0.27 | 68.5 | 7.5 | 1009 |
| 09/03 01:00 | 42 | 92 | 0.00 | 0.27 | 63.5 | 7.0 | 1009 |
| 09/03 00:00 | 44 | 93 | 0.01 | 0.27 | 66.3 | 7.2 | 1009 |
| 09/02 23:00 | 45 | 92 | 0.00 | 0.26 | 65.2 | 6.9 | 1009 |
| 09/02 22:00 | 45 | 92 | 0.01 | 0.26 | 65.5 | 6.8 | 1008 |
| 09/02 21:00 | 47 | 94 | 0.02 | 0.25 | 64.9 | 6.8 | 1008 |
| 09/02 20:00 | 47 | 93 | 0.00 | 0.23 | 60.6 | 6.9 | 1007 |
| 09/02 19:00 | 48 | 93 | 0.01 | 0.23 | 63.5 | 6.7 | 1007 |
| 09/02 18:00 | 50 | 94 | 0.05 | 0.22 | 69.3 | 6.8 | 1007 |
| 09/02 17:00 | 52 | 80 | 0.00 | 0.17 | 137.7 | 6.7 | 1007 |
| 09/02 16:00 | 55 | 71 | 0.00 | 0.17 | 140.4 | -7999.0 | 1006 |
| 09/02 15:00 | 54 | 82 | 0.00 | 0.17 | 139.4 | 6.2 | 1007 |
| 09/02 14:00 | 56 | 72 | 0.00 | 0.17 | 141.4 | 5.4 | 1007 |
| 09/02 13:00 | 55 | 70 | 0.00 | 0.17 | 146.1 | 5.9 | 1007 |
| 09/02 12:00 | 56 | 66 | 0.00 | 0.17 | 152.1 | 5.4 | 1008 |
| 09/02 11:00 | 54 | 74 | 0.00 | 0.17 | 144.3 | 5.9 | 1008 |
| 09/02 10:00 | 50 | 87 | 0.00 | 0.17 | 110.3 | 6.2 | 1009 |
| 09/02 09:00 | 49 | 92 | 0.00 | 0.17 | 60.8 | 5.9 | 1009 |
| 09/02 08:00 | 49 | 94 | 0.00 | 0.17 | 30.2 | 6.1 | 1009 |
| 09/02 07:00 | 49 | 94 | 0.00 | 0.17 | 25.5 | 6.3 | 1009 |
| 09/02 06:00 | 49 | 95 | 0.00 | 0.17 | 24.2 | 6.4 | 1009 |
| 09/02 05:00 | 49 | 94 | 0.00 | 0.17 | 25.6 | 6.3 | 1010 |
| 09/02 04:00 | 49 | 94 | 0.00 | 0.17 | 25.3 | 6.3 | 1010 |
| 09/02 03:00 | 49 | 94 | 0.00 | 0.17 | 21.9 | 6.1 | 1010 |
| 09/02 02:00 | 50 | 94 | 0.00 | 0.17 | 25.6 | 6.4 | 1011 |
| 09/02 01:00 | 50 | 94 | 0.00 | 0.17 | 25.8 | 6.4 | 1011 |
| 09/02 00:00 | 50 | 94 | 0.00 | 0.17 | 28.0 | 5.9 | 1012 |
| 09/01 23:00 | 50 | 93 | 0.00 | 0.17 | 32.4 | 6.0 | 1011 |
| 09/01 22:00 | 51 | 92 | 0.00 | 0.17 | 53.4 | 5.9 | 1012 |
| 09/01 21:00 | 52 | 92 | 0.00 | 0.17 | 77.3 | 5.9 | 1012 |
| 09/01 20:00 | 53 | 88 | 0.00 | 0.17 | 120.8 | 5.9 | 1011 |
| 09/01 19:00 | 54 | 84 | 0.00 | 0.17 | 124.7 | 5.9 | 1011 |
| 09/01 18:00 | 54 | 85 | 0.00 | 0.17 | 129.1 | 6.0 | 1011 |
| 09/01 17:00 | 56 | 82 | 0.00 | 0.17 | 136.4 | 5.4 | 1011 |
| 09/01 16:00 | 60 | 78 | 0.00 | 0.17 | 150.7 | 5.3 | 1011 |
| 09/01 15:00 | 61 | 74 | 0.00 | 0.17 | 157.7 | 5.3 | 1011 |
| 09/01 14:00 | 64 | 68 | 0.00 | 0.17 | 161.3 | 5.0 | 1011 |
| 09/01 13:00 | 65 | 65 | 0.00 | 0.17 | 150.0 | 4.7 | 1011 |
| 09/01 12:00 | 63 | 67 | 0.00 | 0.17 | 155.5 | 5.1 | 1011 |
| 09/01 11:00 | 61 | 71 | 0.00 | 0.17 | 154.8 | 5.5 | 1011 |
| 09/01 10:00 | 56 | 80 | 0.00 | 0.17 | 143.8 | 5.7 | 1011 |
| 09/01 09:00 | 52 | 81 | 0.00 | 0.17 | 126.6 | 5.9 | 1012 |
| 09/01 08:00 | 50 | 77 | 0.00 | 0.17 | 120.3 | 6.2 | 1012 |
| 09/01 07:00 | 49 | 75 | 0.00 | 0.17 | 118.5 | 6.0 | 1012 |
| 09/01 06:00 | 51 | 72 | 0.00 | 0.17 | 122.6 | 6.2 | 1011 |
| 09/01 05:00 | 52 | 66 | 0.00 | 0.17 | 124.3 | 6.2 | 1011 |
| 09/01 04:00 | 53 | 67 | 0.00 | 0.17 | 121.7 | 5.9 | 1012 |
| 09/01 03:00 | 53 | 68 | 0.00 | 0.17 | 126.0 | 5.9 | 1012 |
| 09/01 02:00 | 53 | 68 | 0.00 | 0.17 | 124.3 | 5.9 | 1012 |
| 09/01 01:00 | 54 | 66 | 0.00 | 0.17 | 118.7 | 5.9 | 1012 |
| 09/01 00:00 | 55 | 65 | 0.00 | 0.17 | 121.9 | 5.8 | 1012 |
| 08/31 23:00 | 55 | 65 | 0.00 | 0.17 | 129.2 | 6.1 | 1013 |
| 08/31 22:00 | 56 | 65 | 0.00 | 0.17 | 126.9 | 5.9 | 1013 |
| 08/31 21:00 | 58 | 64 | 0.00 | 0.17 | 125.8 | 5.9 | 1013 |
| 08/31 20:00 | 61 | 59 | 0.00 | 0.17 | 129.1 | 5.5 | 1013 |
| 08/31 19:00 | 66 | 45 | 0.00 | 0.17 | 130.0 | 5.3 | 1013 |
| 08/31 18:00 | 68 | 41 | 0.00 | 0.17 | 132.2 | 5.3 | 1013 |
| 08/31 17:00 | 69 | 40 | 0.00 | 0.17 | 140.0 | 5.2 | 1013 |
| 08/31 16:00 | 71 | 39 | 0.00 | 0.17 | 139.5 | 5.1 | 1013 |
| 08/31 15:00 | 70 | 40 | 0.00 | 0.17 | 145.9 | 4.9 | 1014 |
| 08/31 14:00 | 69 | 43 | 0.00 | 0.17 | 152.9 | 5.1 | 1014 |
| 08/31 13:00 | 66 | 49 | 0.00 | 0.17 | 147.1 | 5.5 | 1015 |
| 08/31 12:00 | 63 | 57 | 0.00 | 0.17 | 155.3 | 5.2 | 1015 |
| 08/31 11:00 | 60 | 62 | 0.00 | 0.17 | 149.6 | 6.2 | 1016 |
| 08/31 10:00 | 55 | 72 | 0.00 | 0.17 | 116.2 | 6.4 | 1016 |
| 08/31 09:00 | 49 | 89 | 0.00 | 0.17 | 25.6 | 6.7 | 1016 |
| 08/31 08:00 | 46 | 94 | 0.00 | 0.17 | 21.9 | 7.2 | 1016 |
| 08/31 07:00 | 45 | 94 | 0.00 | 0.17 | 24.4 | 6.9 | 1016 |
| 08/31 06:00 | 45 | 94 | 0.00 | 0.17 | 22.3 | 6.9 | 1016 |
| 08/31 05:00 | 45 | 94 | 0.00 | 0.17 | 20.4 | 6.8 | 1016 |
| 08/31 04:00 | 45 | 94 | 0.00 | 0.17 | 20.2 | 6.7 | 1016 |
| 08/31 03:00 | 45 | 94 | 0.00 | 0.17 | 22.1 | 6.9 | 1016 |
| 08/31 02:00 | 44 | 91 | 0.00 | 0.17 | 19.4 | 6.5 | 1017 |
| 08/31 01:00 | 45 | 90 | 0.00 | 0.17 | 27.6 | 6.8 | 1017 |
| 08/31 00:00 | 46 | 88 | 0.00 | 0.17 | 41.0 | 6.7 | 1017 |
| 08/30 23:00 | 48 | 90 | 0.00 | 0.17 | 59.2 | 6.4 | 1018 |
| 08/30 22:00 | 49 | 89 | 0.00 | 0.17 | 86.1 | 6.2 | 1018 |
| 08/30 21:00 | 49 | 88 | 0.00 | 0.17 | 102.5 | 6.0 | 1019 |
| 08/30 20:00 | 50 | 86 | 0.00 | 0.17 | 121.3 | 6.3 | 1018 |
| 08/30 19:00 | 51 | 84 | 0.00 | 0.17 | 134.1 | 6.1 | 1019 |
| 08/30 18:00 | 51 | 81 | 0.00 | 0.17 | 137.3 | 6.1 | 1019 |
| 08/30 17:00 | 52 | 78 | 0.00 | 0.17 | 138.0 | 6.1 | 1019 |
| 08/30 16:00 | 52 | 80 | 0.00 | 0.17 | 142.9 | 6.1 | 1019 |
| 08/30 15:00 | 53 | 76 | 0.00 | 0.17 | 146.2 | 6.0 | 1019 |
| 08/30 14:00 | 51 | 81 | 0.00 | 0.17 | 136.7 | 6.1 | 1019 |
| 08/30 13:00 | 50 | 82 | 0.00 | 0.17 | 137.6 | 6.4 | 1019 |
| 08/30 12:00 | 48 | 87 | 0.00 | 0.17 | 127.6 | 6.7 | 1019 |
| 08/30 11:00 | 46 | 92 | 0.00 | 0.17 | 108.9 | 6.0 | 1019 |
| 08/30 10:00 | 46 | 94 | 0.00 | 0.17 | 84.7 | 6.3 | 1019 |
| 08/30 09:00 | 45 | 96 | 0.00 | 0.17 | 38.1 | 6.6 | 1019 |
| 08/30 08:00 | 45 | 96 | 0.00 | 0.17 | 26.0 | 7.0 | 1019 |
| 08/30 07:00 | 45 | 96 | 0.00 | 0.17 | 33.4 | 7.0 | 1018 |
| 08/30 06:00 | 45 | 95 | 0.00 | 0.17 | 29.3 | 6.7 | 1018 |
| 08/30 05:00 | 45 | 95 | 0.00 | 0.17 | 31.2 | 6.6 | 1018 |
| 08/30 04:00 | 44 | 95 | 0.00 | 0.17 | 23.3 | 6.6 | 1018 |
| 08/30 03:00 | 45 | 95 | 0.00 | 0.17 | 24.1 | 6.6 | 1018 |
| 08/30 02:00 | 45 | 95 | 0.00 | 0.17 | 26.6 | 6.6 | 1018 |
| 08/30 01:00 | 45 | 95 | 0.00 | 0.17 | 26.3 | 6.5 | 1018 |
| 08/30 00:00 | 46 | 94 | 0.00 | 0.17 | 29.1 | 6.4 | 1018 |
| 08/29 23:00 | 46 | 95 | 0.00 | 0.17 | 25.2 | 6.4 | 1018 |
| 08/29 22:00 | 46 | 94 | 0.00 | 0.17 | 27.1 | 6.7 | 1019 |
| 08/29 21:00 | 46 | 93 | 0.00 | 0.17 | 37.5 | 6.5 | 1018 |
| 08/29 20:00 | 46 | 92 | 0.00 | 0.17 | 63.4 | 6.6 | 1018 |
| 08/29 19:00 | 47 | 91 | 0.00 | 0.17 | 114.6 | 6.8 | 1018 |
| 08/29 18:00 | 47 | 91 | 0.00 | 0.17 | 123.7 | 6.9 | 1018 |
| 08/29 17:00 | 47 | 88 | 0.00 | 0.17 | 128.6 | 7.0 | 1018 |
| 08/29 16:00 | 47 | 89 | 0.00 | 0.17 | 116.8 | 6.9 | 1017 |
| 08/29 15:00 | 47 | 92 | 0.01 | 0.17 | 103.8 | 6.9 | 1017 |
| 08/29 14:00 | 46 | 93 | 0.03 | 0.16 | 77.1 | 7.2 | 1017 |
| 08/29 13:00 | 47 | 93 | 0.05 | 0.13 | 105.8 | 7.0 | 1016 |
| 08/29 12:00 | 47 | 93 | 0.01 | 0.08 | 87.5 | 7.0 | 1016 |
| 08/29 11:00 | 45 | 93 | 0.01 | 0.07 | 67.7 | 7.1 | 1015 |
| 08/29 10:00 | 45 | 93 | 0.01 | 0.06 | 44.5 | 7.0 | 1015 |
| 08/29 09:00 | 45 | 95 | 0.01 | 0.05 | 39.5 | 7.1 | 1015 |
| 08/29 08:00 | 45 | 95 | 0.00 | 0.04 | 43.3 | 6.8 | 1014 |
| 08/29 07:00 | 45 | 96 | 0.00 | 0.04 | 61.2 | 7.0 | 1014 |
| 08/29 06:00 | 46 | 96 | 0.01 | 0.04 | 67.5 | 6.8 | 1014 |
| 08/29 05:00 | 47 | 95 | 0.00 | 0.03 | 69.2 | 7.0 | 1014 |
| 08/29 04:00 | 47 | 94 | 0.02 | 0.03 | 44.8 | 7.0 | 1015 |
| 08/29 03:00 | 48 | 94 | 0.01 | 0.01 | 32.8 | 7.2 | 1015 |
| 08/29 02:00 | 49 | 94 | 0.00 | 0.00 | 39.8 | 6.4 | 1015 |
| 08/29 01:00 | 49 | 89 | 0.00 | 0.00 | 54.7 | 6.2 | 1015 |
| 08/29 00:00 | 50 | 89 | 0.00 | 0.00 | 76.0 | 6.4 | 1015 |
| 08/28 23:00 | 50 | 88 | 0.00 | 0.00 | 96.2 | 6.1 | 1016 |
| 08/28 22:00 | 50 | 84 | 0.00 | 0.00 | 111.0 | 6.4 | 1016 |
| 08/28 21:00 | 52 | 80 | 0.00 | 0.00 | 124.0 | 6.3 | 1016 |
| 08/28 20:00 | 54 | 76 | 0.00 | 0.00 | 129.7 | 6.2 | 1016 |
| 08/28 19:00 | 56 | 71 | 0.00 | 0.00 | 133.2 | 5.9 | 1016 |
| 08/28 18:00 | 59 | 65 | 0.00 | 0.00 | 144.5 | 6.0 | 1016 |
| 08/28 17:00 | 61 | 57 | 0.00 | 0.00 | 151.8 | 5.7 | 1016 |
| 08/28 16:00 | 63 | 55 | 0.00 | 0.00 | 156.5 | 5.4 | 1016 |
| 08/28 15:00 | 62 | 56 | 0.00 | 0.00 | 153.5 | 5.1 | 1017 |
| 08/28 14:00 | 62 | 57 | 0.00 | 0.00 | 152.7 | 5.5 | 1017 |
| 08/28 13:00 | 60 | 60 | 0.00 | 0.00 | 140.8 | 5.6 | 1017 |
| 08/28 12:00 | 58 | 68 | 0.00 | 0.00 | 153.5 | 5.6 | 1017 |
| 08/28 11:00 | 54 | 76 | 0.00 | 0.00 | 144.4 | 5.4 | 1018 |
| 08/28 10:00 | 52 | 86 | 0.00 | 0.00 | 134.0 | 5.9 | 1018 |
| 08/28 09:00 | 50 | 90 | 0.00 | 0.00 | 112.9 | 6.0 | 1018 |
| 08/28 08:00 | 49 | 93 | 0.00 | 0.00 | 71.3 | 6.0 | 1018 |
| 08/28 07:00 | 50 | 93 | 0.00 | 0.00 | 52.3 | 5.9 | 1018 |
| 08/28 06:00 | 50 | 92 | 0.00 | 0.00 | 61.3 | 6.2 | 1018 |
| 08/28 05:00 | 50 | 88 | 0.00 | 0.00 | 71.7 | 6.0 | 1018 |
| 08/28 04:00 | 50 | 89 | 0.00 | 0.00 | 81.6 | 6.2 | 1018 |
| 08/28 03:00 | 50 | 88 | 0.00 | 0.00 | 89.2 | 6.1 | 1018 |
| 08/28 02:00 | 51 | 86 | 0.00 | 0.00 | 119.9 | 6.0 | 1019 |
| 08/28 01:00 | 52 | 86 | 0.00 | 0.00 | 129.8 | 6.2 | 1019 |
| 08/28 00:00 | 53 | 85 | 0.00 | 0.00 | 130.6 | 6.0 | 1018 |
| 08/27 23:00 | 53 | 83 | 0.00 | 0.00 | 133.1 | 6.0 | 1019 |
| 08/27 22:00 | 54 | 80 | 0.00 | 0.00 | 132.3 | 5.7 | 1019 |
| 08/27 21:00 | 55 | 76 | 0.00 | 0.00 | 134.0 | 5.6 | 1018 |
| 08/27 20:00 | 55 | 75 | 0.00 | 0.00 | 130.1 | 5.8 | 1018 |
| 08/27 19:00 | 56 | 71 | 0.00 | 0.00 | 141.0 | 5.9 | 1018 |
| 08/27 18:00 | 57 | 68 | 0.00 | 0.00 | 134.2 | 5.4 | 1018 |

